SWR3BY EDDB-LSZH
Flight info
| Callsign | SWR3BY |
|---|---|
| Flight time | 1h 5m |
| Altitude | 30000 |
| Route | KISUC1N KISUC Z20 MAG Z92 ABGUS DCT LUXUX/N0452F310 DCT SWALM/N0451F300 DCT OMOGI/N0453F310 T721 RILAX RILAX2A |
| Aircraft | A321/M-SDE3FGHIRWY/LB1 |
Departure
| Time | 2026-05-04 09:34 |
|---|---|
| Airport | Berlin Brandenburg Airport (EDDB) |
Arrival
| Time | 2026-05-04 10:39 |
|---|---|
| Airport | Zürich Airport (LSZH) |
| Time | Latitude | Longitude | Altitude | Speed | Heading |
|---|---|---|---|---|---|
| 2026-05-04 09:07 | 52.36246 | 13.50676 | 155 ft | 0 kts | 69° |
| 2026-05-04 09:27 | 52.36244 | 13.50667 | 155 ft | 4 kts | 69° |
| 2026-05-04 09:27 | 52.36234 | 13.50626 | 154 ft | 4 kts | 69° |
| 2026-05-04 09:27 | 52.36224 | 13.50585 | 154 ft | 4 kts | 69° |
| 2026-05-04 09:27 | 52.36215 | 13.50543 | 154 ft | 4 kts | 69° |
| 2026-05-04 09:28 | 52.36205 | 13.50502 | 154 ft | 4 kts | 69° |
| 2026-05-04 09:28 | 52.36197 | 13.50468 | 154 ft | 3 kts | 70° |
| 2026-05-04 09:28 | 52.36193 | 13.50428 | 154 ft | 4 kts | 109° |
| 2026-05-04 09:28 | 52.36207 | 13.50394 | 154 ft | 4 kts | 150° |
| 2026-05-04 09:29 | 52.36215 | 13.50388 | 154 ft | 0 kts | 159° |
| 2026-05-04 09:30 | 52.36207 | 13.50393 | 154 ft | 4 kts | 159° |
| 2026-05-04 09:30 | 52.36158 | 13.50424 | 154 ft | 11 kts | 159° |
| 2026-05-04 09:30 | 52.36064 | 13.50484 | 154 ft | 18 kts | 159° |
| 2026-05-04 09:30 | 52.35934 | 13.50567 | 154 ft | 23 kts | 158° |
| 2026-05-04 09:31 | 52.35801 | 13.50704 | 154 ft | 20 kts | 100° |
| 2026-05-04 09:31 | 52.35843 | 13.50912 | 154 ft | 19 kts | 67° |
| 2026-05-04 09:31 | 52.35891 | 13.51106 | 154 ft | 18 kts | 69° |
| 2026-05-04 09:31 | 52.35934 | 13.51294 | 154 ft | 17 kts | 69° |
| 2026-05-04 09:32 | 52.35975 | 13.51474 | 154 ft | 17 kts | 69° |
| 2026-05-04 09:32 | 52.36025 | 13.51688 | 154 ft | 25 kts | 68° |
| 2026-05-04 09:34 | 52.35286 | 13.49973 | 158 ft | 167 kts | 249° |
| 2026-05-04 09:34 | 52.34853 | 13.48130 | 805 ft | 176 kts | 250° |
| 2026-05-04 09:34 | 52.34386 | 13.46226 | 1633 ft | 179 kts | 249° |
| 2026-05-04 09:34 | 52.33781 | 13.44336 | 1886 ft | 199 kts | 233° |
| 2026-05-04 09:35 | 52.32815 | 13.42544 | 2122 ft | 219 kts | 229° |
| 2026-05-04 09:35 | 52.31772 | 13.40711 | 2807 ft | 220 kts | 228° |
| 2026-05-04 09:35 | 52.30733 | 13.38866 | 3481 ft | 222 kts | 230° |
| 2026-05-04 09:35 | 52.29697 | 13.37002 | 4206 ft | 222 kts | 229° |
| 2026-05-04 09:37 | 52.23120 | 13.22288 | 8229 ft | 261 kts | 248° |
| 2026-05-04 09:37 | 52.22433 | 13.19520 | 8836 ft | 265 kts | 248° |
| 2026-05-04 09:38 | 52.21736 | 13.16724 | 9515 ft | 268 kts | 248° |
| 2026-05-04 09:38 | 52.21031 | 13.13908 | 10167 ft | 270 kts | 247° |
| 2026-05-04 09:38 | 52.20317 | 13.11066 | 10762 ft | 272 kts | 247° |
| 2026-05-04 09:38 | 52.19596 | 13.08203 | 11378 ft | 274 kts | 247° |
| 2026-05-04 09:39 | 52.18867 | 13.05318 | 11986 ft | 276 kts | 247° |
| 2026-05-04 09:39 | 52.18140 | 13.02453 | 12612 ft | 278 kts | 247° |
| 2026-05-04 09:39 | 52.17386 | 12.99487 | 13228 ft | 281 kts | 246° |
| 2026-05-04 09:39 | 52.16636 | 12.96541 | 13837 ft | 283 kts | 247° |
| 2026-05-04 09:40 | 52.16083 | 12.93469 | 14177 ft | 294 kts | 255° |
| 2026-05-04 09:40 | 52.15602 | 12.90083 | 14306 ft | 311 kts | 255° |
| 2026-05-04 09:40 | 52.15115 | 12.86605 | 14450 ft | 327 kts | 256° |
| 2026-05-04 09:40 | 52.14601 | 12.82911 | 14581 ft | 342 kts | 256° |
| 2026-05-04 09:41 | 52.14065 | 12.79056 | 14707 ft | 356 kts | 256° |
| 2026-05-04 09:42 | 52.09956 | 12.50292 | 17124 ft | 381 kts | 256° |
| 2026-05-04 09:43 | 52.09347 | 12.46086 | 17478 ft | 383 kts | 256° |
| 2026-05-04 09:43 | 52.08733 | 12.41857 | 17837 ft | 385 kts | 256° |
| 2026-05-04 09:43 | 52.08113 | 12.37605 | 18216 ft | 387 kts | 256° |
| 2026-05-04 09:43 | 52.07490 | 12.33332 | 18575 ft | 389 kts | 256° |
| 2026-05-04 09:44 | 52.06865 | 12.29049 | 18934 ft | 391 kts | 255° |
| 2026-05-04 09:44 | 52.06236 | 12.24744 | 19280 ft | 392 kts | 255° |
| 2026-05-04 09:44 | 52.05601 | 12.20420 | 19627 ft | 394 kts | 255° |
| 2026-05-04 09:46 | 52.01030 | 11.89610 | 22033 ft | 408 kts | 255° |
| 2026-05-04 09:46 | 52.00364 | 11.85169 | 22361 ft | 410 kts | 255° |
| 2026-05-04 09:46 | 51.99687 | 11.80667 | 22697 ft | 412 kts | 255° |
| 2026-05-04 09:47 | 51.98989 | 11.76151 | 23036 ft | 413 kts | 254° |
| 2026-05-04 09:47 | 51.98245 | 11.71643 | 23366 ft | 415 kts | 253° |
| 2026-05-04 09:49 | 51.92688 | 11.39653 | 25280 ft | 427 kts | 253° |
| 2026-05-04 09:49 | 51.91889 | 11.35023 | 25531 ft | 428 kts | 253° |
| 2026-05-04 09:49 | 51.91081 | 11.30366 | 25774 ft | 429 kts | 253° |
| 2026-05-04 09:51 | 51.86167 | 11.02291 | 27052 ft | 434 kts | 253° |
| 2026-05-04 09:51 | 51.85341 | 10.97598 | 27310 ft | 433 kts | 253° |
| 2026-05-04 09:51 | 51.84523 | 10.92980 | 27571 ft | 432 kts | 253° |
| 2026-05-04 09:51 | 51.83692 | 10.88307 | 27835 ft | 432 kts | 253° |
| 2026-05-04 09:52 | 51.82860 | 10.83650 | 28097 ft | 431 kts | 253° |
| 2026-05-04 09:52 | 51.82027 | 10.78992 | 28341 ft | 430 kts | 253° |
| 2026-05-04 09:52 | 51.81198 | 10.74358 | 28631 ft | 429 kts | 252° |
| 2026-05-04 09:52 | 51.80368 | 10.69737 | 28922 ft | 427 kts | 252° |
| 2026-05-04 09:53 | 51.79544 | 10.65137 | 29180 ft | 426 kts | 252° |
| 2026-05-04 09:53 | 51.78719 | 10.60549 | 29449 ft | 424 kts | 252° |
| 2026-05-04 09:53 | 51.77892 | 10.55987 | 29720 ft | 423 kts | 252° |
| 2026-05-04 09:53 | 51.77060 | 10.51429 | 29945 ft | 423 kts | 252° |
| 2026-05-04 09:54 | 51.76233 | 10.46900 | 30010 ft | 418 kts | 252° |
| 2026-05-04 09:54 | 51.74600 | 10.37961 | 30010 ft | 414 kts | 252° |
| 2026-05-04 09:55 | 51.72965 | 10.29054 | 30010 ft | 414 kts | 252° |
| 2026-05-04 09:55 | 51.71334 | 10.20216 | 30024 ft | 414 kts | 252° |
| 2026-05-04 09:56 | 51.69686 | 10.11309 | 30007 ft | 415 kts | 252° |
| 2026-05-04 09:56 | 51.68027 | 10.02400 | 30006 ft | 415 kts | 252° |
| 2026-05-04 09:57 | 51.66364 | 9.93503 | 30010 ft | 415 kts | 252° |
| 2026-05-04 09:57 | 51.64574 | 9.84675 | 30009 ft | 414 kts | 244° |
| 2026-05-04 09:58 | 51.61258 | 9.77177 | 29996 ft | 414 kts | 224° |
| 2026-05-04 09:58 | 51.56391 | 9.72236 | 30005 ft | 419 kts | 204° |
| 2026-05-04 10:00 | 51.35502 | 9.59305 | 30012 ft | 421 kts | 204° |
| 2026-05-04 10:04 | 50.97230 | 9.35918 | 31027 ft | 420 kts | 204° |
| 2026-05-04 10:04 | 50.91777 | 9.32623 | 31026 ft | 419 kts | 204° |
| 2026-05-04 10:05 | 50.86327 | 9.29338 | 31023 ft | 419 kts | 204° |
| 2026-05-04 10:05 | 50.80888 | 9.26058 | 31021 ft | 419 kts | 204° |
| 2026-05-04 10:06 | 50.75438 | 9.22775 | 31024 ft | 419 kts | 204° |
| 2026-05-04 10:06 | 50.69846 | 9.20145 | 31026 ft | 424 kts | 192° |
| 2026-05-04 10:08 | 50.49326 | 9.15898 | 31013 ft | 425 kts | 192° |
| 2026-05-04 10:08 | 50.43468 | 9.14686 | 31020 ft | 424 kts | 192° |
| 2026-05-04 10:09 | 50.37656 | 9.13490 | 31025 ft | 424 kts | 192° |
| 2026-05-04 10:09 | 50.31804 | 9.12297 | 31026 ft | 424 kts | 192° |
| 2026-05-04 10:10 | 50.25965 | 9.11099 | 31020 ft | 423 kts | 191° |
| 2026-05-04 10:10 | 50.20132 | 9.09915 | 31021 ft | 422 kts | 191° |
| 2026-05-04 10:11 | 50.14311 | 9.08735 | 31022 ft | 421 kts | 191° |
| 2026-05-04 10:11 | 50.08493 | 9.07544 | 31025 ft | 421 kts | 191° |
| 2026-05-04 10:12 | 50.02721 | 9.06363 | 31022 ft | 421 kts | 191° |
| 2026-05-04 10:12 | 49.96914 | 9.05193 | 31023 ft | 420 kts | 191° |
| 2026-05-04 10:13 | 49.91077 | 9.04011 | 31019 ft | 420 kts | 191° |
| 2026-05-04 10:13 | 49.85280 | 9.02844 | 31018 ft | 420 kts | 191° |
| 2026-05-04 10:14 | 49.79521 | 9.01703 | 31010 ft | 420 kts | 190° |
| 2026-05-04 10:16 | 49.56430 | 8.96509 | 31009 ft | 418 kts | 193° |
| 2026-05-04 10:16 | 49.50709 | 8.94837 | 31014 ft | 418 kts | 193° |
| 2026-05-04 10:17 | 49.44979 | 8.93230 | 31015 ft | 418 kts | 193° |
| 2026-05-04 10:19 | 49.22026 | 8.86996 | 31011 ft | 419 kts | 192° |
| 2026-05-04 10:19 | 49.16323 | 8.85450 | 31001 ft | 419 kts | 192° |
| 2026-05-04 10:20 | 49.10590 | 8.83882 | 31007 ft | 418 kts | 192° |
| 2026-05-04 10:20 | 49.04861 | 8.82321 | 31007 ft | 418 kts | 192° |
| 2026-05-04 10:21 | 48.99125 | 8.80764 | 31007 ft | 419 kts | 192° |
| 2026-05-04 10:21 | 48.93391 | 8.79214 | 31003 ft | 418 kts | 192° |
| 2026-05-04 10:22 | 48.84798 | 8.76897 | 31007 ft | 418 kts | 192° |
| 2026-05-04 10:23 | 48.79066 | 8.75354 | 31005 ft | 418 kts | 192° |
| 2026-05-04 10:25 | 48.55947 | 8.69191 | 29050 ft | 426 kts | 192° |
| 2026-05-04 10:25 | 48.53028 | 8.68412 | 28338 ft | 427 kts | 192° |
| 2026-05-04 10:25 | 48.50088 | 8.67632 | 27307 ft | 430 kts | 192° |
| 2026-05-04 10:25 | 48.47129 | 8.66850 | 26245 ft | 433 kts | 191° |
| 2026-05-04 10:26 | 48.44146 | 8.66063 | 25223 ft | 436 kts | 191° |
| 2026-05-04 10:26 | 48.41147 | 8.65271 | 24238 ft | 439 kts | 191° |
| 2026-05-04 10:26 | 48.38134 | 8.64478 | 23283 ft | 440 kts | 191° |
| 2026-05-04 10:26 | 48.35133 | 8.63652 | 22475 ft | 435 kts | 192° |
| 2026-05-04 10:27 | 48.32184 | 8.62773 | 21740 ft | 429 kts | 192° |
| 2026-05-04 10:27 | 48.29284 | 8.61877 | 21031 ft | 423 kts | 192° |
| 2026-05-04 10:27 | 48.26421 | 8.60978 | 20325 ft | 417 kts | 192° |
| 2026-05-04 10:27 | 48.23600 | 8.60095 | 19628 ft | 412 kts | 192° |
| 2026-05-04 10:28 | 48.20811 | 8.59233 | 18962 ft | 407 kts | 192° |
| 2026-05-04 10:28 | 48.18045 | 8.58395 | 18309 ft | 402 kts | 192° |
| 2026-05-04 10:28 | 48.15353 | 8.57588 | 17461 ft | 400 kts | 192° |
| 2026-05-04 10:28 | 48.12624 | 8.56780 | 16908 ft | 396 kts | 192° |
| 2026-05-04 10:29 | 48.09905 | 8.55979 | 17031 ft | 402 kts | 192° |
| 2026-05-04 10:29 | 48.07153 | 8.55168 | 17029 ft | 403 kts | 192° |
| 2026-05-04 10:29 | 48.04393 | 8.54353 | 17029 ft | 403 kts | 192° |
| 2026-05-04 10:29 | 48.01645 | 8.53539 | 16856 ft | 400 kts | 192° |
| 2026-05-04 10:30 | 47.99019 | 8.52763 | 16597 ft | 368 kts | 192° |
| 2026-05-04 10:30 | 47.96612 | 8.52055 | 16313 ft | 337 kts | 192° |
| 2026-05-04 10:30 | 47.94405 | 8.51406 | 16060 ft | 311 kts | 192° |
| 2026-05-04 10:30 | 47.92331 | 8.50793 | 15430 ft | 299 kts | 193° |
| 2026-05-04 10:31 | 47.90307 | 8.50180 | 14660 ft | 294 kts | 193° |
| 2026-05-04 10:31 | 47.88309 | 8.49567 | 13870 ft | 292 kts | 193° |
| 2026-05-04 10:32 | 47.76716 | 8.46057 | 9367 ft | 275 kts | 191° |
| 2026-05-04 10:33 | 47.74838 | 8.45486 | 8641 ft | 276 kts | 191° |
| 2026-05-04 10:33 | 47.72951 | 8.44911 | 8174 ft | 277 kts | 191° |
| 2026-05-04 10:33 | 47.71058 | 8.44337 | 7717 ft | 278 kts | 191° |
| 2026-05-04 10:33 | 47.69235 | 8.43379 | 7257 ft | 281 kts | 207° |
| 2026-05-04 10:34 | 47.67679 | 8.41678 | 6823 ft | 285 kts | 223° |
| 2026-05-04 10:34 | 47.66233 | 8.39562 | 6059 ft | 298 kts | 216° |
| 2026-05-04 10:34 | 47.64426 | 8.38115 | 5611 ft | 291 kts | 195° |
| 2026-05-04 10:34 | 47.62467 | 8.37626 | 5441 ft | 273 kts | 178° |
| 2026-05-04 10:35 | 47.60651 | 8.37939 | 4858 ft | 264 kts | 161° |
| 2026-05-04 10:35 | 47.59019 | 8.39010 | 4331 ft | 249 kts | 146° |
| 2026-05-04 10:35 | 47.57723 | 8.40570 | 3961 ft | 232 kts | 135° |
| 2026-05-04 10:35 | 47.56568 | 8.42157 | 3648 ft | 218 kts | 136° |
| 2026-05-04 10:36 | 47.55491 | 8.43634 | 3375 ft | 206 kts | 136° |
| 2026-05-04 10:36 | 47.54471 | 8.45035 | 3123 ft | 191 kts | 136° |
| 2026-05-04 10:36 | 47.53546 | 8.46303 | 2851 ft | 173 kts | 136° |
| 2026-05-04 10:36 | 47.52704 | 8.47490 | 2617 ft | 161 kts | 136° |
| 2026-05-04 10:37 | 47.51895 | 8.48590 | 2426 ft | 156 kts | 137° |
| 2026-05-04 10:37 | 47.51098 | 8.49658 | 2205 ft | 153 kts | 137° |
| 2026-05-04 10:37 | 47.50316 | 8.50709 | 2057 ft | 151 kts | 136° |
| 2026-05-04 10:37 | 47.49547 | 8.51767 | 1836 ft | 150 kts | 134° |
| 2026-05-04 10:39 | 47.46540 | 8.55700 | 1402 ft | 24 kts | 168° |
| 2026-05-04 10:39 | 47.46385 | 8.55769 | 1402 ft | 23 kts | 149° |
| 2026-05-04 10:39 | 47.46270 | 8.55915 | 1405 ft | 21 kts | 136° |
| 2026-05-04 10:40 | 47.46166 | 8.55998 | 1408 ft | 15 kts | 180° |
| 2026-05-04 10:40 | 47.46067 | 8.55989 | 1407 ft | 14 kts | 184° |
| 2026-05-04 10:40 | 47.45952 | 8.55948 | 1409 ft | 17 kts | 228° |
| 2026-05-04 10:40 | 47.45945 | 8.55774 | 1404 ft | 18 kts | 275° |
| 2026-05-04 10:41 | 47.45958 | 8.55588 | 1401 ft | 18 kts | 277° |
| 2026-05-04 10:41 | 47.45986 | 8.55468 | 1401 ft | 8 kts | 344° |
| 2026-05-04 10:41 | 47.46037 | 8.55469 | 1406 ft | 7 kts | 4° |
| 2026-05-04 10:41 | 47.46047 | 8.55471 | 1402 ft | 0 kts | 6° |